sensor_id;sensor_type;location;lat;lon;timestamp;P1;durP1;ratioP1;P2;durP2;ratioP2
5678;SDS011;2862;52.560;13.566;2023-08-07T00:05:10;17.13;;;1.63;;
5678;SDS011;2862;52.560;13.566;2023-08-07T00:15:15;18.40;;;1.50;;
5678;SDS011;2862;52.560;13.566;2023-08-07T00:25:18;18.80;;;1.23;;
5678;SDS011;2862;52.560;13.566;2023-08-07T00:35:23;17.47;;;1.40;;
5678;SDS011;2862;52.560;13.566;2023-08-07T00:45:26;17.20;;;1.63;;
5678;SDS011;2862;52.560;13.566;2023-08-07T00:55:31;19.43;;;2.03;;
5678;SDS011;2862;52.560;13.566;2023-08-07T01:05:35;17.20;;;1.00;;
5678;SDS011;2862;52.560;13.566;2023-08-07T01:15:39;17.97;;;2.90;;
5678;SDS011;2862;52.560;13.566;2023-08-07T01:25:43;15.30;;;1.50;;
5678;SDS011;2862;52.560;13.566;2023-08-07T01:35:49;15.73;;;1.83;;
5678;SDS011;2862;52.560;13.566;2023-08-07T01:45:57;15.47;;;1.83;;
5678;SDS011;2862;52.560;13.566;2023-08-07T01:56:01;17.27;;;1.70;;
5678;SDS011;2862;52.560;13.566;2023-08-07T02:06:07;15.80;;;2.10;;
5678;SDS011;2862;52.560;13.566;2023-08-07T02:16:10;16.27;;;1.40;;
5678;SDS011;2862;52.560;13.566;2023-08-07T02:26:14;16.73;;;1.60;;
5678;SDS011;2862;52.560;13.566;2023-08-07T02:36:17;20.30;;;2.60;;
5678;SDS011;2862;52.560;13.566;2023-08-07T02:46:22;18.60;;;2.90;;
5678;SDS011;2862;52.560;13.566;2023-08-07T02:56:25;18.80;;;2.07;;
5678;SDS011;2862;52.560;13.566;2023-08-07T03:06:29;21.30;;;3.20;;
5678;SDS011;2862;52.560;13.566;2023-08-07T03:16:32;22.10;;;4.43;;
5678;SDS011;2862;52.560;13.566;2023-08-07T03:26:37;23.77;;;5.23;;
5678;SDS011;2862;52.560;13.566;2023-08-07T03:36:40;25.00;;;4.60;;
5678;SDS011;2862;52.560;13.566;2023-08-07T03:46:44;18.27;;;3.97;;
5678;SDS011;2862;52.560;13.566;2023-08-07T03:56:47;17.93;;;3.50;;
5678;SDS011;2862;52.560;13.566;2023-08-07T04:06:54;18.43;;;3.40;;
5678;SDS011;2862;52.560;13.566;2023-08-07T04:16:57;23.93;;;4.83;;
5678;SDS011;2862;52.560;13.566;2023-08-07T04:27:03;19.10;;;3.60;;
5678;SDS011;2862;52.560;13.566;2023-08-07T04:37:07;21.63;;;4.30;;
5678;SDS011;2862;52.560;13.566;2023-08-07T04:47:11;20.23;;;3.70;;
5678;SDS011;2862;52.560;13.566;2023-08-07T04:57:15;18.27;;;2.53;;
5678;SDS011;2862;52.560;13.566;2023-08-07T05:07:19;20.73;;;2.90;;
5678;SDS011;2862;52.560;13.566;2023-08-07T05:17:22;18.60;;;3.77;;
5678;SDS011;2862;52.560;13.566;2023-08-07T05:27:26;17.87;;;3.07;;
5678;SDS011;2862;52.560;13.566;2023-08-07T05:37:30;16.70;;;2.03;;
5678;SDS011;2862;52.560;13.566;2023-08-07T05:48:13;19.60;;;3.63;;
5678;SDS011;2862;52.560;13.566;2023-08-07T05:58:17;18.30;;;2.63;;
5678;SDS011;2862;52.560;13.566;2023-08-07T06:08:22;19.17;;;3.60;;
5678;SDS011;2862;52.560;13.566;2023-08-07T06:18:25;16.93;;;1.50;;
5678;SDS011;2862;52.560;13.566;2023-08-07T06:28:29;16.03;;;1.50;;
5678;SDS011;2862;52.560;13.566;2023-08-07T06:38:34;15.73;;;1.00;;
5678;SDS011;2862;52.560;13.566;2023-08-07T06:48:38;14.27;;;1.07;;
5678;SDS011;2862;52.560;13.566;2023-08-07T06:58:41;15.20;;;1.27;;
5678;SDS011;2862;52.560;13.566;2023-08-07T07:08:45;16.47;;;1.60;;
5678;SDS011;2862;52.560;13.566;2023-08-07T07:18:49;19.93;;;1.80;;
5678;SDS011;2862;52.560;13.566;2023-08-07T07:28:53;14.40;;;0.80;;
5678;SDS011;2862;52.560;13.566;2023-08-07T07:38:56;16.93;;;0.60;;
5678;SDS011;2862;52.560;13.566;2023-08-07T07:49:00;21.40;;;1.00;;
5678;SDS011;2862;52.560;13.566;2023-08-07T07:59:05;18.13;;;0.50;;
5678;SDS011;2862;52.560;13.566;2023-08-07T08:09:10;13.43;;;0.50;;
5678;SDS011;2862;52.560;13.566;2023-08-07T08:19:13;15.47;;;0.90;;
5678;SDS011;2862;52.560;13.566;2023-08-07T08:29:19;16.87;;;0.53;;
5678;SDS011;2862;52.560;13.566;2023-08-07T08:39:21;22.10;;;0.80;;
5678;SDS011;2862;52.560;13.566;2023-08-07T08:49:27;14.40;;;0.60;;
5678;SDS011;2862;52.560;13.566;2023-08-07T08:59:33;25.10;;;1.10;;
5678;SDS011;2862;52.560;13.566;2023-08-07T09:09:37;22.90;;;0.60;;
5678;SDS011;2862;52.560;13.566;2023-08-07T09:19:42;14.80;;;0.90;;
5678;SDS011;2862;52.560;13.566;2023-08-07T09:29:47;14.33;;;0.47;;
5678;SDS011;2862;52.560;13.566;2023-08-07T09:39:51;16.17;;;0.60;;
5678;SDS011;2862;52.560;13.566;2023-08-07T09:49:55;16.70;;;0.60;;
5678;SDS011;2862;52.560;13.566;2023-08-07T09:59:59;15.20;;;0.60;;
5678;SDS011;2862;52.560;13.566;2023-08-07T10:10:13;13.50;;;0.53;;
5678;SDS011;2862;52.560;13.566;2023-08-07T10:20:17;16.80;;;1.30;;
5678;SDS011;2862;52.560;13.566;2023-08-07T10:30:22;14.20;;;0.40;;
5678;SDS011;2862;52.560;13.566;2023-08-07T10:40:27;16.30;;;0.60;;
5678;SDS011;2862;52.560;13.566;2023-08-07T10:50:32;14.43;;;0.30;;
5678;SDS011;2862;52.560;13.566;2023-08-07T11:00:36;26.57;;;0.53;;
5678;SDS011;2862;52.560;13.566;2023-08-07T11:10:41;19.03;;;0.73;;
5678;SDS011;2862;52.560;13.566;2023-08-07T11:20:44;15.30;;;0.50;;
5678;SDS011;2862;52.560;13.566;2023-08-07T11:30:49;16.73;;;0.40;;
5678;SDS011;2862;52.560;13.566;2023-08-07T11:40:53;15.17;;;0.40;;
5678;SDS011;2862;52.560;13.566;2023-08-07T11:50:58;19.60;;;1.17;;
5678;SDS011;2862;52.560;13.566;2023-08-07T12:01:05;15.97;;;0.47;;
5678;SDS011;2862;52.560;13.566;2023-08-07T12:11:14;22.53;;;0.77;;
5678;SDS011;2862;52.560;13.566;2023-08-07T12:21:17;18.50;;;0.93;;
5678;SDS011;2862;52.560;13.566;2023-08-07T12:31:23;21.63;;;1.40;;
5678;SDS011;2862;52.560;13.566;2023-08-07T12:41:26;17.63;;;0.50;;
5678;SDS011;2862;52.560;13.566;2023-08-07T12:51:33;18.70;;;1.17;;
5678;SDS011;2862;52.560;13.566;2023-08-07T13:01:36;15.97;;;0.70;;
5678;SDS011;2862;52.560;13.566;2023-08-07T13:11:40;19.93;;;0.50;;
5678;SDS011;2862;52.560;13.566;2023-08-07T13:21:43;21.70;;;2.07;;
5678;SDS011;2862;52.560;13.566;2023-08-07T13:31:49;17.50;;;0.60;;
5678;SDS011;2862;52.560;13.566;2023-08-07T13:42:07;19.37;;;2.40;;
5678;SDS011;2862;52.560;13.566;2023-08-07T13:52:13;24.73;;;1.43;;
5678;SDS011;2862;52.560;13.566;2023-08-07T14:02:16;22.90;;;3.53;;
5678;SDS011;2862;52.560;13.566;2023-08-07T14:12:20;23.20;;;1.20;;
5678;SDS011;2862;52.560;13.566;2023-08-07T14:22:23;18.33;;;1.03;;
5678;SDS011;2862;52.560;13.566;2023-08-07T14:32:27;17.77;;;1.10;;
5678;SDS011;2862;52.560;13.566;2023-08-07T14:42:30;25.10;;;2.17;;
5678;SDS011;2862;52.560;13.566;2023-08-07T14:52:34;20.40;;;1.33;;
5678;SDS011;2862;52.560;13.566;2023-08-07T15:02:38;21.30;;;1.93;;
5678;SDS011;2862;52.560;13.566;2023-08-07T15:12:44;18.63;;;1.33;;
5678;SDS011;2862;52.560;13.566;2023-08-07T15:22:46;22.57;;;1.33;;
5678;SDS011;2862;52.560;13.566;2023-08-07T15:32:51;25.07;;;0.80;;
5678;SDS011;2862;52.560;13.566;2023-08-07T15:42:54;23.13;;;2.67;;
5678;SDS011;2862;52.560;13.566;2023-08-07T15:53:03;22.47;;;2.20;;
5678;SDS011;2862;52.560;13.566;2023-08-07T16:03:06;25.53;;;1.33;;
5678;SDS011;2862;52.560;13.566;2023-08-07T16:13:11;23.07;;;1.60;;
5678;SDS011;2862;52.560;13.566;2023-08-07T16:23:15;24.33;;;3.37;;
5678;SDS011;2862;52.560;13.566;2023-08-07T16:33:19;18.60;;;1.00;;
5678;SDS011;2862;52.560;13.566;2023-08-07T16:43:22;19.80;;;2.00;;
5678;SDS011;2862;52.560;13.566;2023-08-07T16:53:27;22.97;;;0.73;;
5678;SDS011;2862;52.560;13.566;2023-08-07T17:03:30;20.80;;;1.00;;
5678;SDS011;2862;52.560;13.566;2023-08-07T17:13:35;20.07;;;1.27;;
5678;SDS011;2862;52.560;13.566;2023-08-07T17:23:38;19.10;;;0.90;;
5678;SDS011;2862;52.560;13.566;2023-08-07T17:33:42;16.87;;;0.80;;
5678;SDS011;2862;52.560;13.566;2023-08-07T17:43:45;16.93;;;1.10;;
5678;SDS011;2862;52.560;13.566;2023-08-07T17:53:49;19.63;;;0.90;;
5678;SDS011;2862;52.560;13.566;2023-08-07T18:03:52;20.00;;;1.93;;
5678;SDS011;2862;52.560;13.566;2023-08-07T18:13:58;18.83;;;1.03;;
5678;SDS011;2862;52.560;13.566;2023-08-07T18:24:01;22.43;;;2.50;;
5678;SDS011;2862;52.560;13.566;2023-08-07T18:34:06;23.13;;;1.53;;
5678;SDS011;2862;52.560;13.566;2023-08-07T18:44:10;20.00;;;1.77;;
5678;SDS011;2862;52.560;13.566;2023-08-07T18:54:15;29.00;;;2.40;;
5678;SDS011;2862;52.560;13.566;2023-08-07T19:04:18;22.30;;;2.23;;
5678;SDS011;2862;52.560;13.566;2023-08-07T19:14:22;17.27;;;0.70;;
5678;SDS011;2862;52.560;13.566;2023-08-07T19:24:26;20.33;;;0.93;;
5678;SDS011;2862;52.560;13.566;2023-08-07T19:34:31;20.37;;;2.13;;
5678;SDS011;2862;52.560;13.566;2023-08-07T19:44:36;15.33;;;0.60;;
5678;SDS011;2862;52.560;13.566;2023-08-07T19:54:40;18.10;;;0.90;;
5678;SDS011;2862;52.560;13.566;2023-08-07T20:04:47;17.13;;;0.50;;
5678;SDS011;2862;52.560;13.566;2023-08-07T20:14:51;24.07;;;1.43;;
5678;SDS011;2862;52.560;13.566;2023-08-07T20:24:54;23.50;;;2.10;;
5678;SDS011;2862;52.560;13.566;2023-08-07T20:34:59;15.10;;;0.57;;
5678;SDS011;2862;52.560;13.566;2023-08-07T20:45:02;14.70;;;0.50;;
5678;SDS011;2862;52.560;13.566;2023-08-07T20:55:08;15.73;;;0.40;;
5678;SDS011;2862;52.560;13.566;2023-08-07T21:05:11;34.17;;;1.67;;
5678;SDS011;2862;52.560;13.566;2023-08-07T21:15:15;23.97;;;1.00;;
5678;SDS011;2862;52.560;13.566;2023-08-07T21:25:18;21.57;;;0.70;;
5678;SDS011;2862;52.560;13.566;2023-08-07T21:35:23;19.07;;;0.40;;
5678;SDS011;2862;52.560;13.566;2023-08-07T21:45:27;22.30;;;0.57;;
5678;SDS011;2862;52.560;13.566;2023-08-07T21:55:31;22.60;;;1.60;;
5678;SDS011;2862;52.560;13.566;2023-08-07T22:05:34;28.77;;;1.00;;
5678;SDS011;2862;52.560;13.566;2023-08-07T22:15:38;18.77;;;0.70;;
5678;SDS011;2862;52.560;13.566;2023-08-07T22:25:41;23.33;;;2.37;;
5678;SDS011;2862;52.560;13.566;2023-08-07T22:35:45;17.10;;;0.67;;
5678;SDS011;2862;52.560;13.566;2023-08-07T22:45:49;17.80;;;0.73;;
5678;SDS011;2862;52.560;13.566;2023-08-07T22:55:53;17.90;;;0.80;;
5678;SDS011;2862;52.560;13.566;2023-08-07T23:05:56;21.57;;;0.70;;
5678;SDS011;2862;52.560;13.566;2023-08-07T23:16:01;15.83;;;1.20;;
5678;SDS011;2862;52.560;13.566;2023-08-07T23:26:04;15.97;;;0.60;;
5678;SDS011;2862;52.560;13.566;2023-08-07T23:36:09;24.53;;;2.30;;
5678;SDS011;2862;52.560;13.566;2023-08-07T23:46:11;18.63;;;0.80;;
5678;SDS011;2862;52.560;13.566;2023-08-07T23:56:16;24.57;;;0.70;;
